sensor_id;sensor_type;location;lat;lon;timestamp;temperature;humidity
44729;DHT22;30457;53.590;9.922;2023-09-19T00:02:03;21.70;53.60
44729;DHT22;30457;53.590;9.922;2023-09-19T00:06:33;21.70;53.70
44729;DHT22;30457;53.590;9.922;2023-09-19T00:10:59;21.70;53.70
44729;DHT22;30457;53.590;9.922;2023-09-19T00:15:36;21.70;53.80
44729;DHT22;30457;53.590;9.922;2023-09-19T00:20:04;21.60;54.00
44729;DHT22;30457;53.590;9.922;2023-09-19T00:24:37;21.60;53.80
44729;DHT22;30457;53.590;9.922;2023-09-19T00:29:03;21.60;53.80
44729;DHT22;30457;53.590;9.922;2023-09-19T00:33:29;21.60;53.90
44729;DHT22;30457;53.590;9.922;2023-09-19T00:37:55;21.60;54.00
44729;DHT22;30457;53.590;9.922;2023-09-19T00:42:21;21.60;54.00
44729;DHT22;30457;53.590;9.922;2023-09-19T00:46:46;21.50;54.00
44729;DHT22;30457;53.590;9.922;2023-09-19T00:51:14;21.50;54.10
44729;DHT22;30457;53.590;9.922;2023-09-19T00:55:45;21.50;54.20
44729;DHT22;30457;53.590;9.922;2023-09-19T01:00:11;21.50;54.20
44729;DHT22;30457;53.590;9.922;2023-09-19T01:04:41;21.50;54.30
44729;DHT22;30457;53.590;9.922;2023-09-19T01:09:07;21.50;54.40
44729;DHT22;30457;53.590;9.922;2023-09-19T01:18:50;21.40;54.50
44729;DHT22;30457;53.590;9.922;2023-09-19T01:23:53;21.40;54.60
44729;DHT22;30457;53.590;9.922;2023-09-19T01:32:51;21.40;54.40
44729;DHT22;30457;53.590;9.922;2023-09-19T01:37:19;21.40;54.60
44729;DHT22;30457;53.590;9.922;2023-09-19T01:41:51;21.40;54.70
44729;DHT22;30457;53.590;9.922;2023-09-19T01:46:25;21.30;54.40
44729;DHT22;30457;53.590;9.922;2023-09-19T01:50:56;21.30;54.20
44729;DHT22;30457;53.590;9.922;2023-09-19T01:55:26;21.30;53.70
44729;DHT22;30457;53.590;9.922;2023-09-19T02:00:00;21.30;53.60
44729;DHT22;30457;53.590;9.922;2023-09-19T02:04:38;21.20;53.40
44729;DHT22;30457;53.590;9.922;2023-09-19T02:09:04;21.20;53.10
44729;DHT22;30457;53.590;9.922;2023-09-19T02:13:29;21.10;53.10
44729;DHT22;30457;53.590;9.922;2023-09-19T02:17:57;21.10;53.40
44729;DHT22;30457;53.590;9.922;2023-09-19T02:22:24;21.10;53.70
44729;DHT22;30457;53.590;9.922;2023-09-19T02:26:50;21.00;53.80
44729;DHT22;30457;53.590;9.922;2023-09-19T02:31:16;20.90;54.10
44729;DHT22;30457;53.590;9.922;2023-09-19T02:35:42;20.90;54.20
44729;DHT22;30457;53.590;9.922;2023-09-19T02:40:08;20.90;54.40
44729;DHT22;30457;53.590;9.922;2023-09-19T02:44:44;20.80;54.40
44729;DHT22;30457;53.590;9.922;2023-09-19T02:49:12;20.80;54.70
44729;DHT22;30457;53.590;9.922;2023-09-19T02:53:38;20.90;54.70
44729;DHT22;30457;53.590;9.922;2023-09-19T02:58:06;20.80;54.70
44729;DHT22;30457;53.590;9.922;2023-09-19T03:02:33;20.80;54.80
44729;DHT22;30457;53.590;9.922;2023-09-19T03:07:00;20.80;54.90
44729;DHT22;30457;53.590;9.922;2023-09-19T03:11:27;20.80;54.80
44729;DHT22;30457;53.590;9.922;2023-09-19T03:15:56;20.80;54.80
44729;DHT22;30457;53.590;9.922;2023-09-19T03:20:25;20.80;54.50
44729;DHT22;30457;53.590;9.922;2023-09-19T03:24:53;20.80;54.40
44729;DHT22;30457;53.590;9.922;2023-09-19T03:29:19;20.70;54.30
44729;DHT22;30457;53.590;9.922;2023-09-19T03:33:45;20.80;54.40
44729;DHT22;30457;53.590;9.922;2023-09-19T03:38:11;20.80;54.40
44729;DHT22;30457;53.590;9.922;2023-09-19T03:42:40;20.70;54.40
44729;DHT22;30457;53.590;9.922;2023-09-19T03:47:08;20.70;54.50
44729;DHT22;30457;53.590;9.922;2023-09-19T03:51:33;20.70;54.40
44729;DHT22;30457;53.590;9.922;2023-09-19T03:55:59;20.70;54.50
44729;DHT22;30457;53.590;9.922;2023-09-19T04:00:25;20.70;54.30
44729;DHT22;30457;53.590;9.922;2023-09-19T04:04:52;20.60;54.30
44729;DHT22;30457;53.590;9.922;2023-09-19T04:09:17;20.50;54.00
44729;DHT22;30457;53.590;9.922;2023-09-19T04:13:43;20.50;53.80
44729;DHT22;30457;53.590;9.922;2023-09-19T04:18:09;20.40;53.50
44729;DHT22;30457;53.590;9.922;2023-09-19T04:22:34;20.40;53.30
44729;DHT22;30457;53.590;9.922;2023-09-19T04:27:00;20.30;53.20
44729;DHT22;30457;53.590;9.922;2023-09-19T04:31:25;20.20;52.90
44729;DHT22;30457;53.590;9.922;2023-09-19T04:35:51;20.20;52.80
44729;DHT22;30457;53.590;9.922;2023-09-19T04:40:16;20.10;52.70
44729;DHT22;30457;53.590;9.922;2023-09-19T04:44:43;20.00;52.70
44729;DHT22;30457;53.590;9.922;2023-09-19T04:49:08;19.90;52.70
44729;DHT22;30457;53.590;9.922;2023-09-19T04:53:34;19.90;52.70
44729;DHT22;30457;53.590;9.922;2023-09-19T04:57:59;19.80;52.70
44729;DHT22;30457;53.590;9.922;2023-09-19T05:02:25;19.80;52.80
44729;DHT22;30457;53.590;9.922;2023-09-19T05:06:56;19.70;52.90
44729;DHT22;30457;53.590;9.922;2023-09-19T05:11:22;19.60;52.90
44729;DHT22;30457;53.590;9.922;2023-09-19T05:15:48;19.60;53.10
44729;DHT22;30457;53.590;9.922;2023-09-19T05:20:13;19.60;53.10
44729;DHT22;30457;53.590;9.922;2023-09-19T05:24:42;19.50;53.10
44729;DHT22;30457;53.590;9.922;2023-09-19T05:29:09;19.50;53.10
44729;DHT22;30457;53.590;9.922;2023-09-19T05:33:34;19.50;53.20
44729;DHT22;30457;53.590;9.922;2023-09-19T05:38:00;19.40;53.20
44729;DHT22;30457;53.590;9.922;2023-09-19T05:42:25;19.40;53.30
44729;DHT22;30457;53.590;9.922;2023-09-19T05:46:51;19.40;53.40
44729;DHT22;30457;53.590;9.922;2023-09-19T05:51:17;19.30;53.50
44729;DHT22;30457;53.590;9.922;2023-09-19T05:55:44;19.30;53.50
44729;DHT22;30457;53.590;9.922;2023-09-19T06:00:11;19.30;53.60
44729;DHT22;30457;53.590;9.922;2023-09-19T06:04:39;19.30;53.70
44729;DHT22;30457;53.590;9.922;2023-09-19T06:09:06;19.30;53.80
44729;DHT22;30457;53.590;9.922;2023-09-19T06:13:33;19.40;53.80
44729;DHT22;30457;53.590;9.922;2023-09-19T06:17:59;19.40;53.80
44729;DHT22;30457;53.590;9.922;2023-09-19T06:22:25;19.50;54.10
44729;DHT22;30457;53.590;9.922;2023-09-19T06:26:50;19.60;54.00
44729;DHT22;30457;53.590;9.922;2023-09-19T06:31:17;19.60;53.80
44729;DHT22;30457;53.590;9.922;2023-09-19T06:35:43;19.70;53.70
44729;DHT22;30457;53.590;9.922;2023-09-19T06:40:11;19.80;53.60
44729;DHT22;30457;53.590;9.922;2023-09-19T06:44:40;19.80;53.40
44729;DHT22;30457;53.590;9.922;2023-09-19T06:49:06;19.90;53.60
44729;DHT22;30457;53.590;9.922;2023-09-19T06:53:32;19.90;53.60
44729;DHT22;30457;53.590;9.922;2023-09-19T06:57:58;19.90;53.50
44729;DHT22;30457;53.590;9.922;2023-09-19T07:02:24;20.00;53.50
44729;DHT22;30457;53.590;9.922;2023-09-19T07:06:50;20.00;53.20
44729;DHT22;30457;53.590;9.922;2023-09-19T07:11:15;20.10;53.50
44729;DHT22;30457;53.590;9.922;2023-09-19T07:15:41;20.10;53.50
44729;DHT22;30457;53.590;9.922;2023-09-19T07:20:11;20.20;53.40
44729;DHT22;30457;53.590;9.922;2023-09-19T07:24:41;20.20;53.30
44729;DHT22;30457;53.590;9.922;2023-09-19T07:29:07;20.30;53.20
44729;DHT22;30457;53.590;9.922;2023-09-19T07:33:34;20.30;53.30
44729;DHT22;30457;53.590;9.922;2023-09-19T07:37:59;20.40;53.10
44729;DHT22;30457;53.590;9.922;2023-09-19T07:42:27;20.40;52.90
44729;DHT22;30457;53.590;9.922;2023-09-19T07:46:52;20.40;53.00
44729;DHT22;30457;53.590;9.922;2023-09-19T07:51:19;20.30;53.00
44729;DHT22;30457;53.590;9.922;2023-09-19T07:55:44;20.30;53.10
44729;DHT22;30457;53.590;9.922;2023-09-19T08:00:13;20.20;53.40
44729;DHT22;30457;53.590;9.922;2023-09-19T08:04:39;20.20;53.70
44729;DHT22;30457;53.590;9.922;2023-09-19T08:09:05;20.10;53.90
44729;DHT22;30457;53.590;9.922;2023-09-19T08:13:34;20.00;54.20
44729;DHT22;30457;53.590;9.922;2023-09-19T08:18:00;19.90;54.20
44729;DHT22;30457;53.590;9.922;2023-09-19T08:22:25;19.90;54.40
44729;DHT22;30457;53.590;9.922;2023-09-19T08:26:51;19.80;54.60
44729;DHT22;30457;53.590;9.922;2023-09-19T08:31:17;19.80;54.90
44729;DHT22;30457;53.590;9.922;2023-09-19T08:35:43;19.90;55.00
44729;DHT22;30457;53.590;9.922;2023-09-19T08:40:09;19.90;54.60
44729;DHT22;30457;53.590;9.922;2023-09-19T08:44:37;19.90;54.60
44729;DHT22;30457;53.590;9.922;2023-09-19T08:49:12;20.00;54.60
44729;DHT22;30457;53.590;9.922;2023-09-19T08:53:51;20.00;54.50
44729;DHT22;30457;53.590;9.922;2023-09-19T08:58:18;20.10;54.20
44729;DHT22;30457;53.590;9.922;2023-09-19T09:02:47;20.10;54.20
44729;DHT22;30457;53.590;9.922;2023-09-19T09:07:14;20.20;54.40
44729;DHT22;30457;53.590;9.922;2023-09-19T09:11:42;20.20;54.00
44729;DHT22;30457;53.590;9.922;2023-09-19T09:16:08;20.30;54.00
44729;DHT22;30457;53.590;9.922;2023-09-19T09:20:35;20.40;53.70
44729;DHT22;30457;53.590;9.922;2023-09-19T09:25:01;20.40;53.40
44729;DHT22;30457;53.590;9.922;2023-09-19T09:29:44;20.50;53.40
44729;DHT22;30457;53.590;9.922;2023-09-19T09:34:10;20.60;53.20
44729;DHT22;30457;53.590;9.922;2023-09-19T09:38:46;20.70;53.20
44729;DHT22;30457;53.590;9.922;2023-09-19T09:43:26;20.80;52.30
44729;DHT22;30457;53.590;9.922;2023-09-19T09:47:53;20.90;51.50
44729;DHT22;30457;53.590;9.922;2023-09-19T09:52:21;21.00;52.20
44729;DHT22;30457;53.590;9.922;2023-09-19T09:57:00;21.10;52.50
44729;DHT22;30457;53.590;9.922;2023-09-19T10:01:48;21.20;51.80
44729;DHT22;30457;53.590;9.922;2023-09-19T10:06:16;21.40;51.30
44729;DHT22;30457;53.590;9.922;2023-09-19T10:10:50;21.60;51.10
44729;DHT22;30457;53.590;9.922;2023-09-19T10:15:19;21.70;50.30
44729;DHT22;30457;53.590;9.922;2023-09-19T10:19:55;21.80;50.50
44729;DHT22;30457;53.590;9.922;2023-09-19T10:24:23;21.90;50.00
44729;DHT22;30457;53.590;9.922;2023-09-19T10:28:52;22.10;49.50
44729;DHT22;30457;53.590;9.922;2023-09-19T10:33:21;22.20;49.10
44729;DHT22;30457;53.590;9.922;2023-09-19T10:37:47;22.20;48.60
44729;DHT22;30457;53.590;9.922;2023-09-19T10:42:19;22.30;47.50
44729;DHT22;30457;53.590;9.922;2023-09-19T10:46:45;22.40;47.50
44729;DHT22;30457;53.590;9.922;2023-09-19T10:51:14;22.30;47.90
44729;DHT22;30457;53.590;9.922;2023-09-19T10:55:40;22.40;47.00
44729;DHT22;30457;53.590;9.922;2023-09-19T11:00:13;22.50;47.70
44729;DHT22;30457;53.590;9.922;2023-09-19T11:04:54;22.50;47.30
44729;DHT22;30457;53.590;9.922;2023-09-19T11:09:49;22.50;47.20
44729;DHT22;30457;53.590;9.922;2023-09-19T11:19:02;22.60;47.30
44729;DHT22;30457;53.590;9.922;2023-09-19T11:23:42;22.60;46.40
44729;DHT22;30457;53.590;9.922;2023-09-19T11:42:43;22.70;46.00
44729;DHT22;30457;53.590;9.922;2023-09-19T11:47:17;22.80;46.10
44729;DHT22;30457;53.590;9.922;2023-09-19T11:51:44;22.80;45.80
44729;DHT22;30457;53.590;9.922;2023-09-19T11:56:10;22.80;46.00
44729;DHT22;30457;53.590;9.922;2023-09-19T12:00:37;22.90;46.20
44729;DHT22;30457;53.590;9.922;2023-09-19T12:05:04;22.90;46.50
44729;DHT22;30457;53.590;9.922;2023-09-19T12:09:31;23.00;46.50
44729;DHT22;30457;53.590;9.922;2023-09-19T12:13:57;23.10;46.20
44729;DHT22;30457;53.590;9.922;2023-09-19T12:18:29;23.20;45.30
44729;DHT22;30457;53.590;9.922;2023-09-19T12:22:55;23.30;44.30
44729;DHT22;30457;53.590;9.922;2023-09-19T12:27:21;23.30;45.00
44729;DHT22;30457;53.590;9.922;2023-09-19T12:31:54;23.30;45.60
44729;DHT22;30457;53.590;9.922;2023-09-19T12:36:23;23.40;45.20
44729;DHT22;30457;53.590;9.922;2023-09-19T12:40:56;23.50;44.80
44729;DHT22;30457;53.590;9.922;2023-09-19T12:45:24;23.60;44.40
44729;DHT22;30457;53.590;9.922;2023-09-19T12:54:39;23.80;43.00
44729;DHT22;30457;53.590;9.922;2023-09-19T12:59:05;23.90;43.40
44729;DHT22;30457;53.590;9.922;2023-09-19T13:03:32;24.00;43.60
44729;DHT22;30457;53.590;9.922;2023-09-19T13:08:20;24.10;43.90
44729;DHT22;30457;53.590;9.922;2023-09-19T13:12:46;24.10;42.80
44729;DHT22;30457;53.590;9.922;2023-09-19T13:17:12;24.30;43.20
44729;DHT22;30457;53.590;9.922;2023-09-19T13:21:41;24.30;42.20
44729;DHT22;30457;53.590;9.922;2023-09-19T13:26:14;24.40;42.10
44729;DHT22;30457;53.590;9.922;2023-09-19T13:30:40;24.50;42.20
44729;DHT22;30457;53.590;9.922;2023-09-19T13:35:09;24.50;42.30
44729;DHT22;30457;53.590;9.922;2023-09-19T13:39:35;24.50;42.50
44729;DHT22;30457;53.590;9.922;2023-09-19T13:44:01;24.60;41.90
44729;DHT22;30457;53.590;9.922;2023-09-19T13:48:27;24.70;41.80
44729;DHT22;30457;53.590;9.922;2023-09-19T13:52:53;24.70;41.70
44729;DHT22;30457;53.590;9.922;2023-09-19T13:57:19;24.80;41.60
44729;DHT22;30457;53.590;9.922;2023-09-19T14:01:44;24.90;40.90
44729;DHT22;30457;53.590;9.922;2023-09-19T14:06:11;25.00;40.90
44729;DHT22;30457;53.590;9.922;2023-09-19T14:10:37;25.10;40.50
44729;DHT22;30457;53.590;9.922;2023-09-19T14:15:04;25.10;40.30
44729;DHT22;30457;53.590;9.922;2023-09-19T14:19:30;25.10;40.70
44729;DHT22;30457;53.590;9.922;2023-09-19T14:23:56;25.10;40.60
44729;DHT22;30457;53.590;9.922;2023-09-19T14:28:21;25.10;40.20
44729;DHT22;30457;53.590;9.922;2023-09-19T14:32:47;25.10;39.70
44729;DHT22;30457;53.590;9.922;2023-09-19T14:37:12;25.00;39.80
44729;DHT22;30457;53.590;9.922;2023-09-19T14:41:38;25.00;39.80
44729;DHT22;30457;53.590;9.922;2023-09-19T14:46:07;24.90;40.00
44729;DHT22;30457;53.590;9.922;2023-09-19T14:50:33;24.80;40.00
44729;DHT22;30457;53.590;9.922;2023-09-19T14:54:58;24.70;40.40
44729;DHT22;30457;53.590;9.922;2023-09-19T14:59:24;24.70;40.40
44729;DHT22;30457;53.590;9.922;2023-09-19T15:03:49;24.60;40.30
44729;DHT22;30457;53.590;9.922;2023-09-19T15:08:15;24.50;40.60
44729;DHT22;30457;53.590;9.922;2023-09-19T15:12:41;24.50;40.80
44729;DHT22;30457;53.590;9.922;2023-09-19T15:17:06;24.40;40.90
44729;DHT22;30457;53.590;9.922;2023-09-19T15:21:32;24.30;41.00
44729;DHT22;30457;53.590;9.922;2023-09-19T15:25:58;24.30;41.30
44729;DHT22;30457;53.590;9.922;2023-09-19T15:30:43;24.20;41.50
44729;DHT22;30457;53.590;9.922;2023-09-19T15:35:12;24.20;41.70
44729;DHT22;30457;53.590;9.922;2023-09-19T15:40:01;24.20;41.60
44729;DHT22;30457;53.590;9.922;2023-09-19T15:44:35;24.10;41.70
44729;DHT22;30457;53.590;9.922;2023-09-19T15:49:11;24.10;41.60
44729;DHT22;30457;53.590;9.922;2023-09-19T15:53:49;24.10;41.70
44729;DHT22;30457;53.590;9.922;2023-09-19T15:58:18;24.00;41.80
44729;DHT22;30457;53.590;9.922;2023-09-19T16:02:45;24.00;42.20
44729;DHT22;30457;53.590;9.922;2023-09-19T16:07:12;23.90;42.10
44729;DHT22;30457;53.590;9.922;2023-09-19T16:11:38;23.90;42.90
44729;DHT22;30457;53.590;9.922;2023-09-19T16:16:04;23.90;42.20
44729;DHT22;30457;53.590;9.922;2023-09-19T16:20:30;23.80;42.10
44729;DHT22;30457;53.590;9.922;2023-09-19T16:24:58;23.70;42.20
44729;DHT22;30457;53.590;9.922;2023-09-19T16:29:24;23.80;42.40
44729;DHT22;30457;53.590;9.922;2023-09-19T16:33:50;23.60;42.30
44729;DHT22;30457;53.590;9.922;2023-09-19T16:38:15;23.60;42.40
44729;DHT22;30457;53.590;9.922;2023-09-19T16:42:41;23.60;42.50
44729;DHT22;30457;53.590;9.922;2023-09-19T16:47:06;23.60;42.60
44729;DHT22;30457;53.590;9.922;2023-09-19T16:51:32;23.50;42.60
44729;DHT22;30457;53.590;9.922;2023-09-19T16:56:07;23.50;42.80
44729;DHT22;30457;53.590;9.922;2023-09-19T17:00:36;23.50;42.70
44729;DHT22;30457;53.590;9.922;2023-09-19T17:05:02;23.40;42.80
44729;DHT22;30457;53.590;9.922;2023-09-19T17:09:28;23.40;42.90
44729;DHT22;30457;53.590;9.922;2023-09-19T17:13:54;23.40;43.00
44729;DHT22;30457;53.590;9.922;2023-09-19T17:18:22;23.30;43.00
44729;DHT22;30457;53.590;9.922;2023-09-19T17:22:47;23.30;43.10
44729;DHT22;30457;53.590;9.922;2023-09-19T17:27:13;23.30;43.10
44729;DHT22;30457;53.590;9.922;2023-09-19T17:31:39;23.30;43.20
44729;DHT22;30457;53.590;9.922;2023-09-19T17:36:10;23.20;43.20
44729;DHT22;30457;53.590;9.922;2023-09-19T17:40:40;23.20;43.40
44729;DHT22;30457;53.590;9.922;2023-09-19T17:45:06;23.10;43.20
44729;DHT22;30457;53.590;9.922;2023-09-19T17:49:32;23.10;43.30
44729;DHT22;30457;53.590;9.922;2023-09-19T17:53:57;23.10;43.30
44729;DHT22;30457;53.590;9.922;2023-09-19T17:58:24;23.10;43.50
44729;DHT22;30457;53.590;9.922;2023-09-19T18:02:50;23.10;43.50
44729;DHT22;30457;53.590;9.922;2023-09-19T18:07:15;23.10;43.60
44729;DHT22;30457;53.590;9.922;2023-09-19T18:11:41;23.00;43.50
44729;DHT22;30457;53.590;9.922;2023-09-19T18:16:07;23.10;43.60
44729;DHT22;30457;53.590;9.922;2023-09-19T18:20:36;23.10;43.50
44729;DHT22;30457;53.590;9.922;2023-09-19T18:25:03;23.00;43.50
44729;DHT22;30457;53.590;9.922;2023-09-19T18:29:29;23.10;43.70
44729;DHT22;30457;53.590;9.922;2023-09-19T18:33:54;23.00;43.60
44729;DHT22;30457;53.590;9.922;2023-09-19T18:38:23;23.10;43.80
44729;DHT22;30457;53.590;9.922;2023-09-19T18:42:50;23.00;43.70
44729;DHT22;30457;53.590;9.922;2023-09-19T18:47:17;23.00;43.80
44729;DHT22;30457;53.590;9.922;2023-09-19T18:51:43;23.00;43.70
44729;DHT22;30457;53.590;9.922;2023-09-19T18:56:09;23.00;43.80
44729;DHT22;30457;53.590;9.922;2023-09-19T19:00:37;23.00;44.20
44729;DHT22;30457;53.590;9.922;2023-09-19T19:05:03;23.00;44.00
44729;DHT22;30457;53.590;9.922;2023-09-19T19:09:29;23.00;44.00
44729;DHT22;30457;53.590;9.922;2023-09-19T19:13:55;22.90;44.00
44729;DHT22;30457;53.590;9.922;2023-09-19T19:18:20;22.90;44.00
44729;DHT22;30457;53.590;9.922;2023-09-19T19:22:46;22.90;44.10
44729;DHT22;30457;53.590;9.922;2023-09-19T19:27:12;22.90;44.20
44729;DHT22;30457;53.590;9.922;2023-09-19T19:31:38;22.90;44.30
44729;DHT22;30457;53.590;9.922;2023-09-19T19:36:08;22.90;44.50
44729;DHT22;30457;53.590;9.922;2023-09-19T19:40:34;22.80;44.60
44729;DHT22;30457;53.590;9.922;2023-09-19T19:44:59;22.80;44.60
44729;DHT22;30457;53.590;9.922;2023-09-19T19:49:25;22.80;44.80
44729;DHT22;30457;53.590;9.922;2023-09-19T19:53:51;22.70;44.80
44729;DHT22;30457;53.590;9.922;2023-09-19T19:58:18;22.80;45.30
44729;DHT22;30457;53.590;9.922;2023-09-19T20:02:46;22.70;45.00
44729;DHT22;30457;53.590;9.922;2023-09-19T20:07:14;22.70;45.10
44729;DHT22;30457;53.590;9.922;2023-09-19T20:11:39;22.70;45.30
44729;DHT22;30457;53.590;9.922;2023-09-19T20:16:05;22.70;45.30
44729;DHT22;30457;53.590;9.922;2023-09-19T20:20:31;22.70;45.30
44729;DHT22;30457;53.590;9.922;2023-09-19T20:24:58;22.70;45.40
44729;DHT22;30457;53.590;9.922;2023-09-19T20:29:23;22.70;45.50
44729;DHT22;30457;53.590;9.922;2023-09-19T20:33:49;22.60;45.50
44729;DHT22;30457;53.590;9.922;2023-09-19T20:38:16;22.60;45.60
44729;DHT22;30457;53.590;9.922;2023-09-19T20:42:44;22.60;45.70
44729;DHT22;30457;53.590;9.922;2023-09-19T20:47:10;22.60;45.90
44729;DHT22;30457;53.590;9.922;2023-09-19T20:51:36;22.60;46.00
44729;DHT22;30457;53.590;9.922;2023-09-19T20:56:04;22.60;46.30
44729;DHT22;30457;53.590;9.922;2023-09-19T21:00:31;22.60;46.50
44729;DHT22;30457;53.590;9.922;2023-09-19T21:04:57;22.50;46.70
44729;DHT22;30457;53.590;9.922;2023-09-19T21:09:23;22.50;46.80
44729;DHT22;30457;53.590;9.922;2023-09-19T21:13:49;22.40;47.00
44729;DHT22;30457;53.590;9.922;2023-09-19T21:18:15;22.40;47.10
44729;DHT22;30457;53.590;9.922;2023-09-19T21:22:40;22.40;47.20
44729;DHT22;30457;53.590;9.922;2023-09-19T21:27:06;22.30;47.30
44729;DHT22;30457;53.590;9.922;2023-09-19T21:31:32;22.30;47.50
44729;DHT22;30457;53.590;9.922;2023-09-19T21:35:58;22.20;47.40
44729;DHT22;30457;53.590;9.922;2023-09-19T21:40:24;22.20;47.60
44729;DHT22;30457;53.590;9.922;2023-09-19T21:44:50;22.20;47.70
44729;DHT22;30457;53.590;9.922;2023-09-19T21:49:16;22.20;47.80
44729;DHT22;30457;53.590;9.922;2023-09-19T21:53:42;22.20;48.10
44729;DHT22;30457;53.590;9.922;2023-09-19T21:58:08;22.10;48.90
44729;DHT22;30457;53.590;9.922;2023-09-19T22:02:34;22.10;48.70
44729;DHT22;30457;53.590;9.922;2023-09-19T22:06:59;22.10;48.70
44729;DHT22;30457;53.590;9.922;2023-09-19T22:11:25;22.00;48.90
44729;DHT22;30457;53.590;9.922;2023-09-19T22:15:55;22.00;49.30
44729;DHT22;30457;53.590;9.922;2023-09-19T22:20:21;22.00;49.70
44729;DHT22;30457;53.590;9.922;2023-09-19T22:24:54;21.90;49.70
44729;DHT22;30457;53.590;9.922;2023-09-19T22:29:22;21.80;49.90
44729;DHT22;30457;53.590;9.922;2023-09-19T22:33:49;21.80;50.20
44729;DHT22;30457;53.590;9.922;2023-09-19T22:38:17;21.70;50.40
44729;DHT22;30457;53.590;9.922;2023-09-19T22:42:45;21.60;50.70
44729;DHT22;30457;53.590;9.922;2023-09-19T22:47:13;21.60;50.80
44729;DHT22;30457;53.590;9.922;2023-09-19T22:51:39;21.50;51.20
44729;DHT22;30457;53.590;9.922;2023-09-19T22:56:11;21.50;51.40
44729;DHT22;30457;53.590;9.922;2023-09-19T23:00:41;21.40;52.00
44729;DHT22;30457;53.590;9.922;2023-09-19T23:05:07;21.40;52.00
44729;DHT22;30457;53.590;9.922;2023-09-19T23:09:40;21.30;51.90
44729;DHT22;30457;53.590;9.922;2023-09-19T23:14:08;21.30;51.90
44729;DHT22;30457;53.590;9.922;2023-09-19T23:18:33;21.30;52.10
44729;DHT22;30457;53.590;9.922;2023-09-19T23:23:01;21.20;52.30
44729;DHT22;30457;53.590;9.922;2023-09-19T23:27:26;21.20;52.30
44729;DHT22;30457;53.590;9.922;2023-09-19T23:31:58;21.20;52.30
44729;DHT22;30457;53.590;9.922;2023-09-19T23:36:24;21.20;52.40
44729;DHT22;30457;53.590;9.922;2023-09-19T23:40:50;21.20;52.30
44729;DHT22;30457;53.590;9.922;2023-09-19T23:45:16;21.20;52.40
44729;DHT22;30457;53.590;9.922;2023-09-19T23:49:46;21.20;52.40
44729;DHT22;30457;53.590;9.922;2023-09-19T23:54:13;21.20;52.50
44729;DHT22;30457;53.590;9.922;2023-09-19T23:58:46;21.20;52.40
